Time;durP1;ratioP1;P1;durP2;ratioP2;P2;SDS_P1;SDS_P2;PMS_P1;PMS_P2;Temp;Humidity;BMP_temperature;BMP_pressure;BME280_temperature;BME280_humidity;BME280_pressure;Samples;Min_cycle;Max_cycle;Signal;HPM_P1;HPM_P2
2023/05/01 00:00:17;;;;;;;7.82;4.35;;;;;;;;;;5039885;28;20790;-61
2023/05/01 00:02:44;;;;;;;9.40;4.20;;;;;;;;;;5046476;28;20439;-61
2023/05/01 00:05:11;;;;;;;9.68;4.53;;;;;;;;;;5045652;28;20413;-61
2023/05/01 00:07:38;;;;;;;6.95;4.32;;;;;;;;;;5037797;28;20415;-61
2023/05/01 00:10:06;;;;;;;10.60;4.53;;;;;;;;;;5045360;28;20422;-61
2023/05/01 00:12:33;;;;;;;6.28;4.30;;;;;;;;;;5045880;28;20413;-61
2023/05/01 00:15:00;;;;;;;8.20;4.53;;;;;;;;;;5043847;28;20415;-62
2023/05/01 00:17:29;;;;;;;8.07;4.47;;;;;;;;;;5040148;28;20418;-62
2023/05/01 00:19:56;;;;;;;8.50;4.53;;;;;;;;;;5039955;28;20418;-62
2023/05/01 00:22:23;;;;;;;7.57;4.50;;;;;;;;;;5040551;28;20469;-62
2023/05/01 00:24:50;;;;;;;10.00;4.90;;;;;;;;;;5042125;28;20421;-63
2023/05/01 00:27:17;;;;;;;10.43;5.15;;;;;;;;;;5040827;28;20473;-62
2023/05/01 00:29:44;;;;;;;10.50;5.22;;;;;;;;;;5039897;28;20457;-62
2023/05/01 00:32:11;;;;;;;7.63;4.95;;;;;;;;;;5052387;28;20449;-61
2023/05/01 00:34:40;;;;;;;7.00;4.68;;;;;;;;;;5043373;28;20411;-61
2023/05/01 00:37:07;;;;;;;9.13;4.80;;;;;;;;;;5042470;28;20413;-61
2023/05/01 00:39:34;;;;;;;9.20;4.80;;;;;;;;;;5041960;28;20464;-61
2023/05/01 00:42:02;;;;;;;8.05;4.93;;;;;;;;;;5042379;28;20468;-61
2023/05/01 00:44:29;;;;;;;8.43;5.15;;;;;;;;;;5041954;28;20419;-61
2023/05/01 00:46:59;;;;;;;7.78;4.55;;;;;;;;;;5041577;28;20521;-61
2023/05/01 00:49:26;;;;;;;7.60;5.03;;;;;;;;;;5030325;28;20437;-61
2023/05/01 00:51:54;;;;;;;7.78;4.40;;;;;;;;;;5030804;28;20415;-61
2023/05/01 00:54:24;;;;;;;7.63;4.75;;;;;;;;;;5039527;28;20419;-61
2023/05/01 00:56:51;;;;;;;7.45;4.80;;;;;;;;;;5039474;28;20956;-61
2023/05/01 00:59:19;;;;;;;11.63;6.95;;;;;;;;;;5038505;28;20415;-61
2023/05/01 01:01:46;;;;;;;10.43;5.07;;;;;;;;;;5046648;28;20819;-61
2023/05/01 01:04:13;;;;;;;9.50;4.65;;;;;;;;;;5045000;28;20822;-61
2023/05/01 01:06:44;;;;;;;8.68;4.85;;;;;;;;;;5039741;28;20411;-61
2023/05/01 01:09:18;;;;;;;9.43;4.20;;;;;;;;;;5039255;28;20433;-61
2023/05/01 01:11:53;;;;;;;6.85;4.07;;;;;;;;;;5040087;28;20454;-61
2023/05/01 01:14:21;;;;;;;8.95;4.30;;;;;;;;;;5039322;28;20832;-61
2023/05/01 01:16:53;;;;;;;6.20;4.00;;;;;;;;;;5042440;28;20868;-61
2023/05/01 01:19:30;;;;;;;7.00;4.28;;;;;;;;;;5043453;28;20415;-61
2023/05/01 01:21:59;;;;;;;8.70;4.00;;;;;;;;;;5043063;28;20415;-61
2023/05/01 01:24:36;;;;;;;5.95;3.70;;;;;;;;;;5043650;28;20471;-61
2023/05/01 01:27:20;;;;;;;7.57;4.10;;;;;;;;;;5044959;28;20864;-61
2023/05/01 01:30:04;;;;;;;6.35;3.78;;;;;;;;;;5043291;28;20866;-61
2023/05/01 01:32:54;;;;;;;7.05;3.70;;;;;;;;;;5048241;28;20471;-61
2023/05/01 01:35:26;;;;;;;7.15;3.38;;;;;;;;;;5041580;28;20517;-61
2023/05/01 01:37:57;;;;;;;5.60;3.50;;;;;;;;;;5041299;28;20404;-61
2023/05/01 01:40:26;;;;;;;5.35;3.08;;;;;;;;;;5044992;28;20459;-61
2023/05/01 01:42:55;;;;;;;5.00;3.50;;;;;;;;;;5043155;28;20466;-60
2023/05/01 01:45:23;;;;;;;5.60;3.30;;;;;;;;;;5042608;28;20445;-61
2023/05/01 01:47:52;;;;;;;4.85;3.40;;;;;;;;;;5042388;28;20417;-61
2023/05/01 01:50:20;;;;;;;4.95;3.10;;;;;;;;;;5043203;28;20449;-61
2023/05/01 01:52:50;;;;;;;5.00;3.00;;;;;;;;;;5045027;28;20417;-61
2023/05/01 01:55:18;;;;;;;8.27;3.13;;;;;;;;;;5044617;28;20458;-61
2023/05/01 01:57:46;;;;;;;5.77;3.30;;;;;;;;;;5041466;28;20430;-61
2023/05/01 02:00:15;;;;;;;6.13;2.90;;;;;;;;;;5044823;28;20427;-61
2023/05/01 02:02:43;;;;;;;6.00;2.97;;;;;;;;;;5051731;28;20417;-62
2023/05/01 02:05:14;;;;;;;7.50;3.03;;;;;;;;;;5041324;28;20538;-62
2023/05/01 02:07:42;;;;;;;5.70;3.03;;;;;;;;;;5044361;28;20914;-61
2023/05/01 02:10:11;;;;;;;5.80;2.70;;;;;;;;;;5043052;28;20852;-61
2023/05/01 02:12:39;;;;;;;4.90;2.63;;;;;;;;;;5042408;28;20415;-61
2023/05/01 02:15:07;;;;;;;6.03;2.70;;;;;;;;;;5045578;28;20479;-61
2023/05/01 02:17:35;;;;;;;4.05;2.63;;;;;;;;;;5041894;28;20422;-61
2023/05/01 02:20:03;;;;;;;5.20;3.00;;;;;;;;;;5042221;28;20411;-61
2023/05/01 02:22:30;;;;;;;4.28;2.50;;;;;;;;;;5042542;28;20817;-61
2023/05/01 02:24:59;;;;;;;4.47;2.50;;;;;;;;;;5044412;28;20463;-61
2023/05/01 02:27:31;;;;;;;4.93;2.88;;;;;;;;;;5041703;28;20418;-61
2023/05/01 02:29:58;;;;;;;5.10;3.00;;;;;;;;;;5041430;28;20429;-61
2023/05/01 02:32:27;;;;;;;5.85;2.70;;;;;;;;;;5045262;28;20413;-61
2023/05/01 02:34:54;;;;;;;4.53;2.60;;;;;;;;;;5045104;28;20419;-61
2023/05/01 02:37:21;;;;;;;4.00;2.40;;;;;;;;;;5042732;28;20441;-61
2023/05/01 02:39:48;;;;;;;4.97;2.60;;;;;;;;;;5043669;28;20405;-61
2023/05/01 02:42:17;;;;;;;5.50;2.53;;;;;;;;;;5041173;28;20508;-61
2023/05/01 02:44:47;;;;;;;5.85;2.67;;;;;;;;;;5044711;28;20547;-61
2023/05/01 02:47:16;;;;;;;7.32;2.50;;;;;;;;;;5043854;28;20478;-61
2023/05/01 02:49:43;;;;;;;3.83;2.50;;;;;;;;;;5043925;28;20848;-61
2023/05/01 02:52:11;;;;;;;5.70;2.50;;;;;;;;;;5043537;28;20420;-61
2023/05/01 02:54:38;;;;;;;4.28;2.13;;;;;;;;;;5043003;28;20417;-61
2023/05/01 02:57:05;;;;;;;4.97;2.43;;;;;;;;;;5040909;28;20979;-61
2023/05/01 02:59:32;;;;;;;4.88;2.50;;;;;;;;;;5043937;28;20417;-61
2023/05/01 03:02:01;;;;;;;3.88;2.50;;;;;;;;;;5045566;28;20957;-61
2023/05/01 03:04:28;;;;;;;4.50;2.33;;;;;;;;;;5037492;28;20904;-61
2023/05/01 03:06:55;;;;;;;4.53;2.53;;;;;;;;;;5044978;28;20426;-61
2023/05/01 03:09:22;;;;;;;5.03;2.50;;;;;;;;;;5047396;28;20512;-61
2023/05/01 03:11:49;;;;;;;5.40;2.65;;;;;;;;;;5044989;28;20486;-61
2023/05/01 03:14:16;;;;;;;4.10;2.40;;;;;;;;;;5045532;28;20944;-61
2023/05/01 03:16:43;;;;;;;4.63;2.50;;;;;;;;;;5041441;28;20426;-61
2023/05/01 03:19:11;;;;;;;5.47;3.03;;;;;;;;;;5041351;28;20488;-62
2023/05/01 03:21:38;;;;;;;4.22;2.15;;;;;;;;;;5031750;28;20410;-61
2023/05/01 03:24:06;;;;;;;4.80;2.67;;;;;;;;;;5031871;28;20423;-61
2023/05/01 03:26:32;;;;;;;5.20;2.65;;;;;;;;;;5031681;28;20442;-61
2023/05/01 03:28:59;;;;;;;5.50;2.55;;;;;;;;;;5034448;28;20485;-61
2023/05/01 03:31:26;;;;;;;3.20;2.55;;;;;;;;;;5051659;28;20417;-61
2023/05/01 03:33:53;;;;;;;6.72;2.78;;;;;;;;;;5040009;28;20481;-61
2023/05/01 03:36:22;;;;;;;3.75;2.20;;;;;;;;;;5046925;28;20418;-61
2023/05/01 03:38:49;;;;;;;7.63;2.97;;;;;;;;;;5038553;28;20415;-61
2023/05/01 03:41:16;;;;;;;4.55;2.60;;;;;;;;;;5046907;28;20421;-61
2023/05/01 03:43:43;;;;;;;3.83;2.50;;;;;;;;;;5039977;28;20419;-61
2023/05/01 03:46:10;;;;;;;5.20;2.65;;;;;;;;;;5042098;28;20811;-61
2023/05/01 03:48:37;;;;;;;3.45;2.20;;;;;;;;;;5041988;28;20487;-61
2023/05/01 03:51:05;;;;;;;6.20;2.83;;;;;;;;;;5039057;28;20502;-62
2023/05/01 03:53:33;;;;;;;4.20;2.67;;;;;;;;;;5041515;28;20781;-61
2023/05/01 03:56:00;;;;;;;4.15;2.40;;;;;;;;;;5036221;28;20477;-61
2023/05/01 03:58:28;;;;;;;3.80;2.45;;;;;;;;;;5041521;28;20413;-61
2023/05/01 04:00:57;;;;;;;4.60;2.13;;;;;;;;;;5051781;28;20948;-61
2023/05/01 04:03:24;;;;;;;4.83;2.77;;;;;;;;;;5045025;28;20414;-61
2023/05/01 04:05:51;;;;;;;4.47;2.78;;;;;;;;;;5042092;28;20413;-61
2023/05/01 04:08:18;;;;;;;3.65;2.40;;;;;;;;;;5039965;28;20423;-61
2023/05/01 04:10:47;;;;;;;3.63;2.45;;;;;;;;;;5040961;28;20442;-61
2023/05/01 04:13:14;;;;;;;4.30;2.40;;;;;;;;;;5044232;28;20472;-61
2023/05/01 04:15:44;;;;;;;3.75;2.50;;;;;;;;;;5045008;28;20417;-61
2023/05/01 04:18:11;;;;;;;5.35;2.80;;;;;;;;;;5043341;28;20421;-61
2023/05/01 04:20:39;;;;;;;3.50;2.38;;;;;;;;;;5038729;28;20422;-62
2023/05/01 04:23:06;;;;;;;3.83;2.38;;;;;;;;;;5043133;28;20428;-62
2023/05/01 04:25:33;;;;;;;4.13;2.65;;;;;;;;;;5042115;28;20413;-62
2023/05/01 04:28:01;;;;;;;4.75;2.40;;;;;;;;;;5038332;28;20476;-62
2023/05/01 04:30:30;;;;;;;3.67;2.33;;;;;;;;;;5049175;28;20429;-62
2023/05/01 04:32:57;;;;;;;4.47;2.30;;;;;;;;;;5042564;28;20480;-62
2023/05/01 04:35:24;;;;;;;3.35;2.38;;;;;;;;;;5039296;28;20410;-62
2023/05/01 04:37:51;;;;;;;3.58;2.28;;;;;;;;;;5040185;28;20423;-62
2023/05/01 04:40:18;;;;;;;4.28;2.28;;;;;;;;;;5039455;28;20498;-62
2023/05/01 04:42:45;;;;;;;2.50;2.00;;;;;;;;;;5039358;28;20937;-62
2023/05/01 04:45:14;;;;;;;2.70;1.92;;;;;;;;;;5040155;28;20419;-63
2023/05/01 04:47:41;;;;;;;5.72;2.33;;;;;;;;;;5041763;28;20417;-62
2023/05/01 04:50:08;;;;;;;3.13;2.13;;;;;;;;;;5040661;28;20513;-60
2023/05/01 04:52:35;;;;;;;4.07;1.90;;;;;;;;;;5043652;28;20445;-61
2023/05/01 04:55:03;;;;;;;4.03;1.92;;;;;;;;;;5045201;28;20784;-62
2023/05/01 04:57:30;;;;;;;5.55;2.30;;;;;;;;;;5045203;28;20413;-62
2023/05/01 04:59:57;;;;;;;3.43;2.03;;;;;;;;;;5047045;28;20470;-62
2023/05/01 05:02:25;;;;;;;4.30;2.20;;;;;;;;;;5050488;28;20481;-62
2023/05/01 05:04:53;;;;;;;3.50;2.08;;;;;;;;;;5043220;28;20779;-62
2023/05/01 05:07:20;;;;;;;3.20;2.10;;;;;;;;;;5044618;28;20420;-62
2023/05/01 05:09:47;;;;;;;3.83;1.90;;;;;;;;;;5045479;28;20431;-62
2023/05/01 05:12:14;;;;;;;5.13;1.83;;;;;;;;;;5043475;28;20476;-62
2023/05/01 05:14:41;;;;;;;4.32;2.20;;;;;;;;;;5043718;28;20410;-61
2023/05/01 05:17:08;;;;;;;3.50;1.80;;;;;;;;;;5045121;28;20923;-62
2023/05/01 05:19:36;;;;;;;4.63;2.13;;;;;;;;;;5044096;28;20501;-61
2023/05/01 05:22:04;;;;;;;3.25;1.92;;;;;;;;;;5042624;28;20445;-62
2023/05/01 05:24:31;;;;;;;4.75;2.28;;;;;;;;;;5044888;28;20413;-62
2023/05/01 05:26:58;;;;;;;3.55;2.00;;;;;;;;;;5044779;28;20412;-62
2023/05/01 05:29:26;;;;;;;4.23;1.70;;;;;;;;;;5043933;28;20487;-61
2023/05/01 05:31:53;;;;;;;2.92;1.92;;;;;;;;;;5053950;28;20933;-61
2023/05/01 05:34:19;;;;;;;3.65;1.92;;;;;;;;;;5045433;28;20491;-62
2023/05/01 05:36:48;;;;;;;3.17;1.80;;;;;;;;;;5043410;28;20410;-62
2023/05/01 05:39:15;;;;;;;4.30;2.00;;;;;;;;;;5042900;28;20418;-61
2023/05/01 05:41:42;;;;;;;2.75;2.08;;;;;;;;;;5045121;28;20418;-61
2023/05/01 05:44:09;;;;;;;4.40;2.00;;;;;;;;;;5041367;28;20431;-62
2023/05/01 05:46:36;;;;;;;2.60;1.90;;;;;;;;;;5047303;28;20466;-62
2023/05/01 05:49:03;;;;;;;3.73;1.97;;;;;;;;;;5046285;28;20423;-62
2023/05/01 05:51:30;;;;;;;3.08;1.90;;;;;;;;;;5042168;28;20450;-62
2023/05/01 05:53:58;;;;;;;3.40;1.98;;;;;;;;;;5044462;28;20413;-62
2023/05/01 05:56:25;;;;;;;2.28;1.90;;;;;;;;;;5044166;28;20414;-62
2023/05/01 05:58:52;;;;;;;3.05;2.00;;;;;;;;;;5042960;28;20502;-62
2023/05/01 06:01:19;;;;;;;3.85;1.90;;;;;;;;;;5057183;28;20461;-61
2023/05/01 06:03:46;;;;;;;4.70;2.38;;;;;;;;;;5042066;28;20824;-61
2023/05/01 06:06:14;;;;;;;2.60;1.90;;;;;;;;;;5045329;28;20434;-61
2023/05/01 06:08:40;;;;;;;3.55;2.10;;;;;;;;;;5045958;28;20834;-61
2023/05/01 06:11:10;;;;;;;3.70;1.80;;;;;;;;;;5033281;28;20450;-62
2023/05/01 06:13:37;;;;;;;2.80;1.90;;;;;;;;;;5033046;28;20415;-61
2023/05/01 06:16:06;;;;;;;3.60;2.08;;;;;;;;;;5032899;28;20845;-62
2023/05/01 06:18:33;;;;;;;3.42;2.00;;;;;;;;;;5033001;28;20430;-62
2023/05/01 06:21:00;;;;;;;3.58;1.90;;;;;;;;;;5033164;28;20461;-62
2023/05/01 06:23:27;;;;;;;3.47;1.98;;;;;;;;;;5040703;28;20417;-61
2023/05/01 06:25:54;;;;;;;2.90;1.83;;;;;;;;;;5043949;28;20471;-61
2023/05/01 06:28:23;;;;;;;4.07;2.20;;;;;;;;;;5045239;28;20421;-62
2023/05/01 06:30:50;;;;;;;3.40;2.20;;;;;;;;;;5054693;28;20427;-62
2023/05/01 06:33:17;;;;;;;3.33;2.20;;;;;;;;;;5044547;28;20448;-62
2023/05/01 06:35:44;;;;;;;3.58;2.10;;;;;;;;;;5043110;28;20411;-62
2023/05/01 06:38:11;;;;;;;3.92;2.00;;;;;;;;;;5041371;28;20423;-61
2023/05/01 06:40:38;;;;;;;3.22;1.88;;;;;;;;;;5043531;28;20463;-62
2023/05/01 06:43:05;;;;;;;3.35;2.00;;;;;;;;;;5043298;28;20421;-62
2023/05/01 06:45:33;;;;;;;4.05;2.00;;;;;;;;;;5041352;28;20828;-62
2023/05/01 06:48:01;;;;;;;2.67;1.98;;;;;;;;;;5042074;28;20463;-62
2023/05/01 06:50:28;;;;;;;3.08;2.10;;;;;;;;;;5043721;28;20433;-62
2023/05/01 06:52:55;;;;;;;4.17;2.30;;;;;;;;;;5042101;28;20414;-62
2023/05/01 06:55:22;;;;;;;3.67;2.00;;;;;;;;;;5041284;28;20476;-62
2023/05/01 06:57:49;;;;;;;3.43;1.90;;;;;;;;;;5041243;28;20497;-62
2023/05/01 07:00:16;;;;;;;3.17;2.00;;;;;;;;;;5050125;28;20478;-62
2023/05/01 07:02:46;;;;;;;3.15;1.80;;;;;;;;;;5042026;28;20418;-61
2023/05/01 07:05:13;;;;;;;3.13;1.73;;;;;;;;;;5041859;28;21044;-62
2023/05/01 07:07:40;;;;;;;2.67;1.85;;;;;;;;;;5043278;28;20486;-61
2023/05/01 07:10:07;;;;;;;3.03;1.92;;;;;;;;;;5041612;28;20423;-62
2023/05/01 07:12:34;;;;;;;3.70;2.30;;;;;;;;;;5040441;28;20833;-62
2023/05/01 07:15:01;;;;;;;4.18;2.10;;;;;;;;;;5031741;28;20410;-62
2023/05/01 07:17:29;;;;;;;2.90;1.85;;;;;;;;;;5031813;28;20415;-61
2023/05/01 07:19:58;;;;;;;3.85;1.90;;;;;;;;;;5031855;28;20544;-62
2023/05/01 07:22:25;;;;;;;3.17;2.15;;;;;;;;;;5032120;28;20462;-61
2023/05/01 07:24:52;;;;;;;4.00;2.10;;;;;;;;;;5031862;28;20829;-62
2023/05/01 07:27:19;;;;;;;4.63;2.30;;;;;;;;;;5041213;28;20418;-62
2023/05/01 07:29:46;;;;;;;4.13;2.23;;;;;;;;;;5043498;28;20426;-61
2023/05/01 07:32:13;;;;;;;2.50;1.90;;;;;;;;;;5048927;28;20438;-62
2023/05/01 07:34:40;;;;;;;4.10;2.15;;;;;;;;;;5041516;28;20467;-62
2023/05/01 07:37:08;;;;;;;3.83;2.17;;;;;;;;;;5042743;28;20884;-61
2023/05/01 07:39:35;;;;;;;4.10;2.33;;;;;;;;;;5041150;28;20492;-62
2023/05/01 07:42:02;;;;;;;3.47;2.05;;;;;;;;;;5040669;28;20462;-62
2023/05/01 07:44:29;;;;;;;2.70;2.03;;;;;;;;;;5040498;28;20498;-62
2023/05/01 07:47:02;;;;;;;5.05;2.10;;;;;;;;;;5040989;28;20418;-62
2023/05/01 07:49:29;;;;;;;3.13;2.15;;;;;;;;;;5041409;28;20411;-62
2023/05/01 07:51:56;;;;;;;4.07;2.00;;;;;;;;;;5037760;28;21018;-63
2023/05/01 07:54:25;;;;;;;2.77;2.00;;;;;;;;;;5052594;28;20498;-63
2023/05/01 07:56:52;;;;;;;2.83;1.90;;;;;;;;;;5051474;28;20421;-63
2023/05/01 07:59:19;;;;;;;4.68;2.00;;;;;;;;;;5047577;28;20417;-63
2023/05/01 08:01:46;;;;;;;4.30;2.10;;;;;;;;;;5051108;28;20811;-62
2023/05/01 08:04:13;;;;;;;3.22;1.80;;;;;;;;;;5041720;28;20421;-63
2023/05/01 08:06:40;;;;;;;3.17;1.75;;;;;;;;;;5039351;28;20411;-62
2023/05/01 08:09:07;;;;;;;4.47;2.07;;;;;;;;;;5040319;28;20964;-63
2023/05/01 08:11:35;;;;;;;4.10;2.38;;;;;;;;;;5041758;28;20429;-63
2023/05/01 08:14:02;;;;;;;4.45;2.40;;;;;;;;;;5040356;28;20415;-65
2023/05/01 08:16:29;;;;;;;2.75;2.00;;;;;;;;;;5039113;28;20419;-62
2023/05/01 08:18:56;;;;;;;3.23;2.00;;;;;;;;;;5039217;28;21137;-62
2023/05/01 08:21:23;;;;;;;4.43;2.08;;;;;;;;;;5039629;28;20779;-62
2023/05/01 08:23:50;;;;;;;2.67;2.10;;;;;;;;;;5046234;28;20833;-62
2023/05/01 08:26:17;;;;;;;2.75;1.98;;;;;;;;;;5043036;28;20496;-62
2023/05/01 08:28:46;;;;;;;5.15;2.00;;;;;;;;;;5042897;28;20415;-62
2023/05/01 08:31:13;;;;;;;5.32;2.08;;;;;;;;;;5055936;28;20905;-62
2023/05/01 08:33:40;;;;;;;6.03;2.47;;;;;;;;;;5040220;28;20450;-62
2023/05/01 08:36:08;;;;;;;4.13;2.00;;;;;;;;;;5038051;28;20418;-61
2023/05/01 08:38:35;;;;;;;3.80;1.80;;;;;;;;;;5045009;28;20500;-61
2023/05/01 08:41:03;;;;;;;4.28;2.00;;;;;;;;;;5039590;28;20465;-62
2023/05/01 08:43:31;;;;;;;4.03;1.90;;;;;;;;;;5042103;28;20421;-62
2023/05/01 08:46:00;;;;;;;4.45;2.13;;;;;;;;;;5045642;28;20444;-62
2023/05/01 08:48:28;;;;;;;3.45;2.20;;;;;;;;;;5041316;28;20415;-60
2023/05/01 08:50:57;;;;;;;4.82;1.83;;;;;;;;;;5041994;28;20563;-62
2023/05/01 08:53:25;;;;;;;5.07;2.00;;;;;;;;;;5039526;28;20908;-62
2023/05/01 08:55:52;;;;;;;2.67;2.00;;;;;;;;;;5040396;28;20414;-61
2023/05/01 08:58:20;;;;;;;4.50;2.10;;;;;;;;;;5032228;28;20410;-62
2023/05/01 09:00:47;;;;;;;4.00;2.20;;;;;;;;;;5049902;28;20965;-62
2023/05/01 09:03:16;;;;;;;3.42;2.10;;;;;;;;;;5042905;28;20424;-62
2023/05/01 09:05:43;;;;;;;4.55;2.38;;;;;;;;;;5040918;28;20419;-62
2023/05/01 09:08:10;;;;;;;4.85;2.10;;;;;;;;;;5039108;28;20886;-62
2023/05/01 09:10:40;;;;;;;4.63;2.22;;;;;;;;;;5041803;28;20792;-62
2023/05/01 09:13:08;;;;;;;3.60;2.10;;;;;;;;;;5042473;28;20445;-62
2023/05/01 09:15:35;;;;;;;4.03;2.10;;;;;;;;;;5041666;28;20419;-62
2023/05/01 09:18:02;;;;;;;4.35;2.10;;;;;;;;;;5039985;28;20441;-62
2023/05/01 09:20:31;;;;;;;3.05;2.00;;;;;;;;;;5041990;28;20444;-62
2023/05/01 09:22:59;;;;;;;3.55;2.00;;;;;;;;;;5040999;28;20914;-62
2023/05/01 09:25:26;;;;;;;4.60;2.47;;;;;;;;;;5039265;28;20422;-62
2023/05/01 09:27:53;;;;;;;3.97;1.90;;;;;;;;;;5041330;28;20495;-62
2023/05/01 09:30:33;;;;;;;2.92;2.30;;;;;;;;;;5047960;28;20455;-62
2023/05/01 09:33:06;;;;;;;3.53;2.03;;;;;;;;;;5042751;28;20434;-62
2023/05/01 09:35:48;;;;;;;3.83;2.13;;;;;;;;;;5039966;28;20473;-62
2023/05/01 09:38:18;;;;;;;3.08;1.80;;;;;;;;;;5043359;28;20411;-62
2023/05/01 09:40:45;;;;;;;3.90;1.92;;;;;;;;;;5043019;28;20485;-62
2023/05/01 09:43:12;;;;;;;3.72;1.90;;;;;;;;;;5043274;28;20414;-62
2023/05/01 09:45:41;;;;;;;3.45;1.90;;;;;;;;;;5043251;28;20920;-62
2023/05/01 09:48:10;;;;;;;3.25;2.03;;;;;;;;;;5044849;28;20835;-60
2023/05/01 09:50:40;;;;;;;2.42;1.55;;;;;;;;;;5044367;28;20801;-62
2023/05/01 09:53:10;;;;;;;3.57;1.97;;;;;;;;;;5045415;28;20405;-62
2023/05/01 09:55:36;;;;;;;2.65;1.83;;;;;;;;;;5044136;28;20429;-62
2023/05/01 09:58:04;;;;;;;3.05;1.80;;;;;;;;;;5041892;28;20421;-62
2023/05/01 10:00:32;;;;;;;3.10;1.90;;;;;;;;;;5045529;28;20421;-62
2023/05/01 10:03:00;;;;;;;3.97;2.20;;;;;;;;;;5047909;28;20505;-62
2023/05/01 10:05:27;;;;;;;4.07;2.25;;;;;;;;;;5044128;28;20452;-62
2023/05/01 10:07:59;;;;;;;3.75;2.35;;;;;;;;;;5044199;28;20508;-62
2023/05/01 10:10:27;;;;;;;3.95;2.90;;;;;;;;;;5033623;28;20415;-62
2023/05/01 10:12:54;;;;;;;3.55;1.67;;;;;;;;;;5033477;28;20441;-62
2023/05/01 10:15:21;;;;;;;3.58;1.75;;;;;;;;;;5033319;28;20433;-62
2023/05/01 10:17:50;;;;;;;2.30;1.50;;;;;;;;;;5033351;28;20484;-62
2023/05/01 10:20:17;;;;;;;3.92;1.60;;;;;;;;;;5034039;28;20478;-62
2023/05/01 10:22:45;;;;;;;3.05;1.73;;;;;;;;;;5043572;28;20413;-62
2023/05/01 10:25:13;;;;;;;2.97;1.83;;;;;;;;;;5044763;28;20547;-62
2023/05/01 10:27:41;;;;;;;3.65;1.90;;;;;;;;;;5043409;28;20447;-62
2023/05/01 10:30:09;;;;;;;3.08;1.73;;;;;;;;;;5046792;28;20415;-62
2023/05/01 10:32:37;;;;;;;2.85;1.90;;;;;;;;;;5046719;28;20429;-62
2023/05/01 10:35:06;;;;;;;3.28;1.48;;;;;;;;;;5043853;28;20791;-62
2023/05/01 10:37:36;;;;;;;3.05;1.70;;;;;;;;;;5041486;28;20886;-62
2023/05/01 10:40:18;;;;;;;1.83;1.02;;;;;;;;;;5042663;28;20464;-62
2023/05/01 10:43:00;;;;;;;2.00;1.30;;;;;;;;;;5034375;28;20739;-62
2023/05/01 10:45:31;;;;;;;2.88;1.60;;;;;;;;;;5043019;28;20423;-62
2023/05/01 10:47:58;;;;;;;4.47;1.80;;;;;;;;;;5039932;28;20426;-63
2023/05/01 10:50:25;;;;;;;2.95;1.70;;;;;;;;;;5041577;28;20469;-63
2023/05/01 10:53:11;;;;;;;2.65;1.42;;;;;;;;;;5041241;28;20450;-62
2023/05/01 10:55:40;;;;;;;2.67;1.50;;;;;;;;;;5044046;28;20892;-62
2023/05/01 10:58:07;;;;;;;3.17;1.30;;;;;;;;;;5042468;28;20411;-62
2023/05/01 11:00:36;;;;;;;2.78;1.30;;;;;;;;;;5051868;28;20435;-63
2023/05/01 11:03:35;;;;;;;3.53;1.50;;;;;;;;;;5045503;28;20415;-62
2023/05/01 11:06:05;;;;;;;2.00;1.40;;;;;;;;;;5042260;28;20805;-62
2023/05/01 11:08:32;;;;;;;1.52;1.10;;;;;;;;;;5043806;28;20413;-62
2023/05/01 11:11:16;;;;;;;2.53;1.10;;;;;;;;;;5041089;28;21370;-62
2023/05/01 11:13:55;;;;;;;3.63;1.23;;;;;;;;;;5041137;28;20407;-62
2023/05/01 11:16:43;;;;;;;2.40;1.15;;;;;;;;;;5040659;28;20415;-62
2023/05/01 11:19:11;;;;;;;3.67;1.47;;;;;;;;;;5043095;28;20818;-62
2023/05/01 11:21:39;;;;;;;2.33;1.60;;;;;;;;;;5041573;28;20465;-62
2023/05/01 11:24:07;;;;;;;1.83;1.23;;;;;;;;;;5040865;28;20926;-62
2023/05/01 11:26:38;;;;;;;1.98;1.10;;;;;;;;;;5042482;28;20753;-62
2023/05/01 11:29:05;;;;;;;2.20;1.20;;;;;;;;;;5047777;28;20411;-62
2023/05/01 11:31:32;;;;;;;1.20;1.10;;;;;;;;;;5047834;28;20482;-62
2023/05/01 11:34:01;;;;;;;2.90;1.30;;;;;;;;;;5039749;28;20419;-66
2023/05/01 11:36:29;;;;;;;2.17;1.45;;;;;;;;;;5042292;28;20792;-65
2023/05/01 11:38:57;;;;;;;2.08;1.25;;;;;;;;;;5046719;28;20490;-64
2023/05/01 11:41:24;;;;;;;1.88;1.23;;;;;;;;;;5039735;28;20423;-65
2023/05/01 11:43:52;;;;;;;3.13;1.20;;;;;;;;;;5042296;28;20491;-62
2023/05/01 11:46:26;;;;;;;2.78;1.30;;;;;;;;;;5045174;28;20429;-62
2023/05/01 11:48:53;;;;;;;2.70;1.60;;;;;;;;;;5045121;28;20421;-62
2023/05/01 11:51:23;;;;;;;3.15;1.35;;;;;;;;;;5047604;28;20413;-64
2023/05/01 11:54:00;;;;;;;2.47;1.40;;;;;;;;;;5044276;28;20418;-63
2023/05/01 11:56:27;;;;;;;2.15;1.40;;;;;;;;;;5030887;28;20442;-65
2023/05/01 11:58:54;;;;;;;1.93;1.33;;;;;;;;;;5035609;28;20414;-65
2023/05/01 12:01:21;;;;;;;2.90;1.65;;;;;;;;;;5044711;28;20413;-65
2023/05/01 12:03:49;;;;;;;2.73;1.40;;;;;;;;;;5037831;28;20458;-67
2023/05/01 12:06:16;;;;;;;1.38;1.13;;;;;;;;;;5044372;28;20441;-65
2023/05/01 12:08:45;;;;;;;1.92;1.38;;;;;;;;;;5039820;28;20419;-66
2023/05/01 12:11:12;;;;;;;1.63;1.27;;;;;;;;;;5039395;28;20430;-64
2023/05/01 12:13:40;;;;;;;2.42;1.27;;;;;;;;;;5039156;28;20457;-61
2023/05/01 12:16:07;;;;;;;2.35;1.48;;;;;;;;;;5039734;28;20422;-63
2023/05/01 12:18:34;;;;;;;2.88;1.60;;;;;;;;;;5038797;28;20442;-66
2023/05/01 12:21:02;;;;;;;2.15;1.30;;;;;;;;;;5040394;28;20413;-63
2023/05/01 12:23:32;;;;;;;1.65;1.33;;;;;;;;;;5041419;28;20401;-63
2023/05/01 12:26:02;;;;;;;2.08;1.40;;;;;;;;;;5039801;28;21028;-62
2023/05/01 12:28:29;;;;;;;2.30;1.30;;;;;;;;;;5040193;28;20437;-63
2023/05/01 12:31:01;;;;;;;1.40;1.17;;;;;;;;;;5043485;28;20485;-62
2023/05/01 12:33:29;;;;;;;2.15;1.40;;;;;;;;;;5042149;28;20456;-62
2023/05/01 12:35:56;;;;;;;2.20;1.50;;;;;;;;;;5041297;28;20417;-62
2023/05/01 12:38:23;;;;;;;1.63;1.38;;;;;;;;;;5041354;28;20416;-63
2023/05/01 12:40:52;;;;;;;2.83;1.67;;;;;;;;;;5038778;28;20415;-62
2023/05/01 12:43:20;;;;;;;2.40;1.50;;;;;;;;;;5043485;28;20433;-61
2023/05/01 12:45:51;;;;;;;2.17;1.55;;;;;;;;;;5038853;28;20418;-61
2023/05/01 12:48:18;;;;;;;3.22;1.20;;;;;;;;;;5038973;28;20422;-62
2023/05/01 12:50:46;;;;;;;2.35;1.65;;;;;;;;;;5049654;28;20780;-62
2023/05/01 12:53:13;;;;;;;2.45;1.50;;;;;;;;;;5048863;28;20434;-62
2023/05/01 12:55:45;;;;;;;1.75;1.25;;;;;;;;;;5042493;28;20878;-62
2023/05/01 12:58:12;;;;;;;3.17;1.70;;;;;;;;;;5039732;28;20425;-61
2023/05/01 13:00:44;;;;;;;2.28;1.48;;;;;;;;;;5045235;28;20409;-61
2023/05/01 13:03:11;;;;;;;1.60;1.25;;;;;;;;;;5040399;28;20442;-62
2023/05/01 13:05:50;;;;;;;1.60;1.40;;;;;;;;;;5039218;28;20420;-62
2023/05/01 13:08:22;;;;;;;2.25;1.30;;;;;;;;;;5042757;28;20417;-61
2023/05/01 13:10:49;;;;;;;1.97;1.57;;;;;;;;;;5030323;28;20462;-62
2023/05/01 13:13:23;;;;;;;2.38;1.38;;;;;;;;;;5033870;28;20836;-63
2023/05/01 13:15:52;;;;;;;3.22;1.90;;;;;;;;;;5045308;28;20467;-62
2023/05/01 13:18:19;;;;;;;2.30;1.30;;;;;;;;;;5045275;28;20417;-62
2023/05/01 13:20:46;;;;;;;3.00;1.85;;;;;;;;;;5041411;28;20466;-62
2023/05/01 13:23:13;;;;;;;2.55;1.60;;;;;;;;;;5044142;28;20961;-62
2023/05/01 13:25:40;;;;;;;2.58;1.50;;;;;;;;;;5042041;28;20418;-62
2023/05/01 13:28:07;;;;;;;2.08;1.50;;;;;;;;;;5043268;28;20443;-62
2023/05/01 13:30:35;;;;;;;2.40;1.60;;;;;;;;;;5052804;28;20428;-62
2023/05/01 13:33:06;;;;;;;2.30;1.42;;;;;;;;;;5047086;28;20437;-62
2023/05/01 13:35:34;;;;;;;1.50;1.30;;;;;;;;;;5047537;28;20899;-62
2023/05/01 13:38:04;;;;;;;2.08;1.30;;;;;;;;;;5055366;28;20430;-62
2023/05/01 13:40:34;;;;;;;2.65;1.50;;;;;;;;;;5042026;28;20549;-62
2023/05/01 13:43:02;;;;;;;4.85;1.70;;;;;;;;;;5042400;28;20513;-62
2023/05/01 13:45:29;;;;;;;2.58;1.63;;;;;;;;;;5041650;28;20832;-62
2023/05/01 13:47:56;;;;;;;3.90;2.15;;;;;;;;;;5043755;28;20420;-62
2023/05/01 13:50:24;;;;;;;4.07;1.53;;;;;;;;;;5043951;28;20528;-62
2023/05/01 13:52:51;;;;;;;3.90;1.92;;;;;;;;;;5043890;28;20425;-58
2023/05/01 13:55:18;;;;;;;2.85;1.80;;;;;;;;;;5053064;28;20493;-59
2023/05/01 13:57:45;;;;;;;2.70;1.55;;;;;;;;;;5044704;28;20430;-60
2023/05/01 14:00:17;;;;;;;2.63;1.40;;;;;;;;;;5045792;28;20432;-60
2023/05/01 14:02:46;;;;;;;2.20;1.37;;;;;;;;;;5046054;28;20827;-57
2023/05/01 14:05:13;;;;;;;2.67;1.80;;;;;;;;;;5047960;28;20428;-59
2023/05/01 14:07:46;;;;;;;1.83;1.50;;;;;;;;;;5042264;28;20798;-59
2023/05/01 14:10:13;;;;;;;2.42;1.40;;;;;;;;;;5040190;28;20486;-61
2023/05/01 14:12:40;;;;;;;2.38;1.33;;;;;;;;;;5041206;28;20979;-59
2023/05/01 14:15:09;;;;;;;1.48;1.25;;;;;;;;;;5046041;28;20896;-60
2023/05/01 14:17:36;;;;;;;1.85;1.27;;;;;;;;;;5039376;28;20450;-61
2023/05/01 14:20:04;;;;;;;3.42;1.30;;;;;;;;;;5048976;28;20507;-60
2023/05/01 14:22:35;;;;;;;3.65;1.50;;;;;;;;;;5045863;28;20419;-61
2023/05/01 14:25:06;;;;;;;1.70;1.38;;;;;;;;;;5041224;28;20415;-57
2023/05/01 14:27:33;;;;;;;1.80;1.30;;;;;;;;;;5042673;28;20823;-59
2023/05/01 14:30:00;;;;;;;2.13;1.38;;;;;;;;;;5048450;28;20943;-59
2023/05/01 14:32:28;;;;;;;4.00;1.63;;;;;;;;;;5042593;28;20433;-60
2023/05/01 14:34:55;;;;;;;2.92;1.33;;;;;;;;;;5041092;28;20427;-61
2023/05/01 14:37:23;;;;;;;3.40;1.40;;;;;;;;;;5048483;28;20415;-58
2023/05/01 14:39:50;;;;;;;2.03;1.10;;;;;;;;;;5051711;28;20415;-61
2023/05/01 14:42:18;;;;;;;1.80;1.30;;;;;;;;;;5032456;28;20421;-61
2023/05/01 14:44:45;;;;;;;1.52;1.27;;;;;;;;;;5031838;28;20419;-62
2023/05/01 14:47:15;;;;;;;2.10;1.35;;;;;;;;;;5031757;28;20840;-60
2023/05/01 14:49:42;;;;;;;2.00;1.43;;;;;;;;;;5032051;28;20464;-63